createdAt,value
2019-03-01T00:01:25.234Z,74.96
2019-03-01T00:04:12.197Z,73.13
2019-03-01T00:06:58.639Z,74.66
2019-03-01T00:10:03.374Z,75.04
2019-03-01T00:14:04.792Z,75.25
2019-03-01T00:17:40.819Z,74.44
2019-03-01T00:21:07.242Z,73.68
2019-03-01T00:24:34.202Z,72.72
2019-03-01T00:28:00.436Z,72.41
2019-03-01T00:31:29.568Z,72.16
2019-03-01T00:34:52.791Z,71.53
2019-03-01T00:38:40.253Z,71.59
2019-03-01T00:42:26.065Z,71.67
2019-03-01T00:44:57.719Z,71.55
2019-03-01T00:47:29.337Z,71.74
2019-03-01T00:50:01.060Z,71.94
2019-03-01T00:52:32.792Z,71.70
2019-03-01T00:55:04.973Z,71.83
2019-03-01T00:57:36.702Z,71.85
2019-03-01T01:00:11.509Z,72.02
2019-03-01T01:02:43.308Z,72.13
2019-03-01T01:05:15.234Z,72.21
2019-03-01T01:07:46.839Z,72.18
2019-03-01T01:10:18.614Z,72.11
2019-03-01T01:12:50.266Z,72.06
2019-03-01T01:15:21.924Z,72.11
2019-03-01T01:17:53.666Z,72.12
2019-03-01T01:20:25.579Z,72.15
2019-03-01T01:22:57.222Z,73.96
2019-03-01T01:25:28.734Z,73.82
2019-03-01T01:28:00.481Z,74.18
2019-03-01T01:30:32.188Z,74.76
2019-03-01T01:33:03.968Z,75.11
2019-03-01T01:35:35.596Z,75.82
2019-03-01T01:38:07.216Z,76.33
2019-03-01T01:40:38.775Z,77.06
2019-03-01T01:43:10.687Z,77.37
2019-03-01T01:45:42.150Z,77.34
2019-03-01T01:48:13.729Z,77.37
2019-03-01T01:50:45.284Z,77.55
2019-03-01T01:53:16.693Z,78.23
2019-03-01T01:55:48.294Z,78.39
2019-03-01T01:58:19.927Z,78.66
2019-03-01T02:00:51.320Z,78.81
2019-03-01T02:03:23.053Z,78.66
2019-03-01T02:05:55.010Z,78.19
2019-03-01T02:08:26.818Z,77.88
2019-03-01T02:10:58.728Z,77.28
2019-03-01T02:13:30.446Z,77.15
2019-03-01T02:16:01.994Z,77.06
2019-03-01T02:18:33.675Z,77.13
2019-03-01T02:21:05.772Z,77.23
2019-03-01T02:23:37.471Z,77.31
2019-03-01T02:26:09.317Z,78.05
2019-03-01T02:28:42.183Z,77.28
2019-03-01T02:31:14.297Z,76.92
2019-03-01T02:33:46.083Z,76.87
2019-03-01T02:36:17.907Z,77.14
2019-03-01T02:38:49.687Z,76.92
2019-03-01T02:41:21.319Z,76.71
2019-03-01T02:43:52.772Z,77.05
2019-03-01T02:46:24.474Z,77.18
2019-03-01T02:48:56.196Z,77.41
2019-03-01T02:51:27.722Z,77.71
2019-03-01T02:53:59.363Z,78.47
2019-03-01T02:56:31.232Z,78.82
2019-03-01T02:59:02.958Z,78.79
2019-03-01T03:01:34.752Z,78.75
2019-03-01T03:04:06.633Z,78.71
2019-03-01T03:07:00.624Z,78.58
2019-03-01T03:09:32.668Z,78.31
2019-03-01T03:12:05.010Z,78.69
2019-03-01T03:14:36.644Z,79.04
2019-03-01T03:17:08.255Z,79.07
2019-03-01T03:19:39.835Z,79.17
2019-03-01T03:22:11.476Z,78.96
2019-03-01T03:24:43.073Z,79.20
2019-03-01T03:27:14.579Z,79.24
2019-03-01T03:29:46.010Z,79.42
2019-03-01T03:32:17.657Z,79.86
2019-03-01T03:34:49.752Z,80.16
2019-03-01T03:37:21.328Z,80.77
2019-03-01T03:39:52.913Z,80.80
2019-03-01T03:42:24.581Z,81.08
2019-03-01T03:44:56.610Z,81.28
2019-03-01T03:47:28.952Z,81.09
2019-03-01T03:50:01.386Z,81.71
2019-03-01T03:52:33.033Z,83.31
2019-03-01T03:55:04.910Z,82.23
2019-03-01T03:57:36.639Z,82.11
2019-03-01T04:00:13.792Z,82.00
2019-03-01T04:02:45.675Z,81.90
2019-03-01T04:05:17.661Z,81.89
2019-03-01T04:07:49.647Z,82.19
2019-03-01T04:10:23.416Z,82.63
2019-03-01T04:12:55.130Z,83.13
2019-03-01T04:15:26.774Z,83.48
2019-03-01T04:17:58.570Z,83.46
2019-03-01T04:20:30.349Z,83.35
2019-03-01T04:23:02.090Z,83.43
2019-03-01T04:25:33.791Z,83.25
2019-03-01T04:28:05.526Z,83.23
2019-03-01T04:30:37.467Z,83.16
2019-03-01T04:33:09.449Z,83.37
2019-03-01T04:35:41.076Z,83.45
2019-03-01T04:38:12.575Z,83.37
2019-03-01T04:40:44.315Z,83.46
2019-03-01T04:43:16.031Z,83.36
2019-03-01T04:45:47.546Z,83.30
2019-03-01T04:48:19.629Z,83.24
2019-03-01T04:50:51.077Z,83.13
2019-03-01T04:53:23.628Z,82.99
2019-03-01T04:55:55.334Z,82.91
2019-03-01T04:58:27.610Z,82.72
2019-03-01T05:00:59.194Z,82.61
2019-03-01T05:03:31.207Z,82.58
2019-03-01T05:06:03.059Z,82.57
2019-03-01T05:08:35.046Z,82.63
2019-03-01T05:11:06.649Z,82.98
2019-03-01T05:13:38.289Z,83.27
2019-03-01T05:16:10.088Z,83.25
2019-03-01T05:18:41.808Z,83.86
2019-03-01T05:21:13.382Z,83.68
2019-03-01T05:23:44.978Z,83.77
2019-03-01T05:30:08.699Z,83.55
2019-03-01T05:32:40.386Z,83.12
2019-03-01T05:35:12.479Z,83.00
2019-03-01T05:37:44.318Z,83.00
2019-03-01T05:40:16.377Z,82.86
2019-03-01T05:42:55.261Z,82.87
2019-03-01T05:45:27.103Z,82.77
2019-03-01T05:47:59.990Z,82.62
2019-03-01T05:50:31.791Z,82.53
2019-03-01T05:53:03.343Z,82.56
2019-03-01T05:55:35.303Z,82.80
2019-03-01T05:58:47.763Z,82.84
2019-03-01T06:01:35.820Z,82.90
2019-03-01T06:04:20.387Z,82.92
2019-03-01T06:07:34.019Z,82.98
2019-03-01T06:11:16.571Z,83.12
2019-03-01T06:14:32.130Z,83.04
2019-03-01T06:17:44.417Z,82.61
2019-03-01T06:21:04.125Z,82.22
2019-03-01T06:24:30.910Z,82.12
2019-03-01T06:28:04.576Z,82.41
2019-03-01T06:31:07.283Z,82.49
2019-03-01T06:35:02.479Z,82.55
2019-03-01T06:38:56.865Z,82.61
2019-03-01T06:42:35.653Z,84.93
2019-03-01T06:46:02.779Z,84.56
2019-03-01T06:48:57.606Z,83.99
2019-03-01T06:51:32.229Z,83.76
2019-03-01T06:54:04.197Z,83.17
2019-03-01T06:56:36.024Z,83.38
2019-03-01T06:59:09.480Z,83.55
2019-03-01T07:01:46.672Z,83.63
2019-03-01T07:04:19.109Z,84.54
2019-03-01T07:06:50.825Z,86.32
2019-03-01T07:09:22.570Z,85.10
2019-03-01T07:11:54.443Z,84.10
2019-03-01T07:14:26.182Z,83.55
2019-03-01T07:16:58.220Z,82.90
2019-03-01T07:19:30.244Z,81.78
2019-03-01T07:22:02.129Z,81.45
2019-03-01T07:24:34.089Z,80.87
2019-03-01T07:27:05.571Z,80.82
2019-03-01T07:29:37.640Z,80.92
2019-03-01T07:32:09.368Z,81.71
2019-03-01T07:34:41.291Z,80.69
2019-03-01T07:37:13.103Z,80.78
2019-03-01T07:39:45.115Z,81.61
2019-03-01T07:42:16.843Z,81.78
2019-03-01T07:44:48.641Z,81.91
2019-03-01T07:47:20.671Z,81.72
2019-03-01T07:49:52.387Z,82.56
2019-03-01T07:52:24.886Z,83.06
2019-03-01T07:57:28.819Z,84.06
2019-03-01T08:00:01.453Z,85.03
2019-03-01T08:02:35.900Z,86.43
2019-03-01T08:05:08.704Z,87.31
2019-03-01T08:07:55.588Z,88.06
2019-03-01T08:10:23.007Z,88.72
2019-03-01T08:12:55.403Z,88.96
2019-03-01T08:15:27.182Z,89.62
2019-03-01T08:18:00.486Z,90.75
2019-03-01T08:20:33.887Z,90.44
2019-03-01T08:23:06.216Z,90.43
2019-03-01T08:25:38.073Z,88.91
2019-03-01T08:28:10.807Z,87.26
2019-03-01T08:30:45.418Z,86.03
2019-03-01T08:33:16.872Z,84.68
2019-03-01T08:35:48.949Z,85.10
2019-03-01T08:38:20.993Z,85.37
2019-03-01T08:40:54.463Z,83.21
2019-03-01T08:43:26.638Z,83.57
2019-03-01T08:45:58.235Z,81.90
2019-03-01T08:48:30.518Z,83.39
2019-03-01T08:51:03.697Z,83.27
2019-03-01T08:53:37.913Z,80.84
2019-03-01T08:56:10.933Z,80.76
2019-03-01T08:58:43.254Z,80.39
2019-03-01T09:01:15.829Z,80.22
2019-03-01T09:03:53.905Z,78.27
2019-03-01T09:10:17.598Z,78.95
2019-03-01T09:12:50.110Z,78.25
2019-03-01T09:15:23.866Z,77.39
2019-03-01T09:18:04.714Z,76.91
2019-03-01T09:20:38.628Z,77.73
2019-03-01T09:23:22.904Z,78.77
2019-03-01T09:25:45.367Z,80.86
2019-03-01T09:28:17.076Z,82.91
2019-03-01T09:30:48.993Z,84.22
2019-03-01T09:33:21.549Z,84.97
2019-03-01T09:36:14.403Z,85.62
2019-03-01T09:38:46.952Z,86.00
2019-03-01T09:41:18.735Z,85.87
2019-03-01T09:43:50.553Z,85.48
2019-03-01T09:46:24.753Z,83.77
2019-03-01T09:48:56.518Z,83.14
2019-03-01T09:51:28.374Z,83.25
2019-03-01T09:54:00.240Z,83.90
2019-03-01T09:56:32.078Z,83.55
2019-03-01T09:59:04.069Z,83.47
2019-03-01T10:01:38.458Z,84.59
2019-03-01T10:04:10.130Z,84.80
2019-03-01T10:06:41.813Z,84.70
2019-03-01T10:09:14.271Z,81.60
2019-03-01T10:11:46.229Z,78.90
2019-03-01T10:14:19.723Z,72.60
2019-03-01T10:16:56.202Z,72.97
2019-03-01T10:19:31.839Z,73.67
2019-03-01T10:22:07.534Z,73.29
2019-03-01T10:24:39.128Z,72.21
2019-03-01T10:27:10.735Z,70.27
2019-03-01T10:29:42.263Z,70.53
2019-03-01T10:32:13.956Z,75.82
2019-03-01T10:34:45.714Z,79.29
2019-03-01T10:37:17.366Z,80.24
2019-03-01T10:39:55.294Z,80.12
2019-03-01T10:42:23.069Z,81.01
2019-03-01T10:44:54.974Z,79.48
2019-03-01T10:47:26.839Z,79.35
2019-03-01T10:49:59.490Z,82.25
2019-03-01T10:52:31.462Z,82.53
2019-03-01T10:55:03.333Z,82.65
2019-03-01T10:57:36.428Z,83.70
2019-03-01T11:00:19.899Z,83.36
2019-03-01T11:02:52.484Z,83.39
2019-03-01T11:05:24.834Z,83.28
2019-03-01T11:07:56.656Z,82.31
2019-03-01T11:10:31.874Z,80.03
2019-03-01T11:13:03.573Z,78.45
2019-03-01T11:15:35.542Z,76.82
2019-03-01T11:18:07.467Z,78.83
2019-03-01T11:20:39.138Z,76.63
2019-03-01T11:23:11.666Z,76.91
2019-03-01T11:25:43.556Z,79.60
2019-03-01T11:28:15.511Z,78.93
2019-03-01T11:30:47.997Z,77.88
2019-03-01T11:33:19.874Z,76.64
2019-03-01T11:35:52.102Z,76.75
2019-03-01T11:38:23.872Z,78.10
2019-03-01T11:40:55.953Z,78.51
2019-03-01T11:43:27.973Z,79.46
2019-03-01T11:46:00.783Z,81.10
2019-03-01T11:48:32.668Z,80.96
2019-03-01T11:51:04.404Z,81.02
2019-03-01T11:53:36.276Z,83.03
2019-03-01T11:56:10.368Z,81.51
2019-03-01T11:58:42.554Z,80.71
2019-03-01T12:01:17.257Z,80.12
2019-03-01T12:03:48.210Z,80.12
2019-03-01T12:06:20.715Z,79.55
2019-03-01T12:08:52.728Z,81.28
2019-03-01T12:11:24.962Z,79.76
2019-03-01T12:13:56.685Z,77.38
2019-03-01T12:16:28.716Z,78.04
2019-03-01T12:19:00.529Z,76.11
2019-03-01T12:21:33.300Z,75.95
2019-03-01T12:24:23.915Z,75.47
2019-03-01T12:26:55.932Z,75.02
2019-03-01T12:29:27.955Z,74.46
2019-03-01T12:31:59.920Z,74.53
2019-03-01T12:34:31.843Z,75.07
2019-03-01T12:37:04.159Z,75.48
2019-03-01T12:39:36.163Z,76.41
2019-03-01T12:42:08.367Z,74.43
2019-03-01T12:44:40.003Z,74.99
2019-03-01T12:47:11.842Z,75.71
2019-03-01T12:49:43.681Z,77.52
2019-03-01T12:52:15.563Z,77.80
2019-03-01T12:54:47.446Z,78.95
2019-03-01T12:57:19.579Z,79.33
2019-03-01T12:59:51.339Z,78.84
2019-03-01T13:02:23.037Z,77.44
2019-03-01T13:04:55.033Z,76.62
2019-03-01T13:07:26.800Z,77.03
2019-03-01T13:10:02.415Z,76.64
2019-03-01T13:12:34.336Z,74.41
2019-03-01T13:15:10.616Z,72.88
2019-03-01T13:18:15.760Z,74.85
2019-03-01T13:20:46.440Z,72.17
2019-03-01T13:23:40.464Z,71.57
2019-03-01T13:26:13.500Z,72.32
2019-03-01T13:28:46.968Z,73.79
2019-03-01T13:31:19.641Z,75.63
2019-03-01T13:33:52.357Z,74.85
2019-03-01T13:36:24.759Z,75.19
2019-03-01T13:38:58.131Z,75.43
2019-03-01T13:41:30.465Z,75.91
2019-03-01T13:44:04.099Z,76.88
2019-03-01T13:46:36.718Z,76.55
2019-03-01T13:49:09.590Z,76.44
2019-03-01T13:51:42.087Z,77.00
2019-03-01T13:54:14.148Z,76.91
2019-03-01T13:56:46.924Z,77.13
2019-03-01T13:59:19.827Z,77.48
2019-03-01T14:02:04.374Z,77.48
2019-03-01T14:04:40.289Z,77.67
2019-03-01T14:07:12.493Z,78.08
2019-03-01T14:09:44.633Z,78.72
2019-03-01T14:12:16.629Z,79.31
2019-03-01T14:14:49.365Z,78.26
2019-03-01T14:17:24.566Z,79.43
2019-03-01T14:19:56.424Z,79.24
2019-03-01T14:22:29.297Z,79.85
2019-03-01T14:25:02.544Z,80.18
2019-03-01T14:27:35.040Z,81.89
2019-03-01T14:30:10.537Z,81.85
2019-03-01T14:32:42.568Z,81.76
2019-03-01T14:35:14.947Z,82.28
2019-03-01T14:37:47.385Z,82.15
2019-03-01T14:40:22.597Z,81.66
2019-03-01T14:42:53.653Z,81.74
2019-03-01T14:45:26.762Z,81.37
2019-03-01T14:47:58.705Z,81.17
2019-03-01T14:50:33.563Z,81.01
2019-03-01T14:53:05.715Z,80.83
2019-03-01T14:55:42.380Z,80.58
2019-03-01T14:58:28.700Z,79.69
2019-03-01T15:01:33.429Z,80.03
2019-03-01T15:04:05.383Z,79.77
2019-03-01T15:06:37.338Z,80.09
2019-03-01T15:09:10.746Z,80.19
2019-03-01T15:11:44.379Z,80.38
2019-03-01T15:14:16.232Z,81.37
2019-03-01T15:16:49.179Z,81.13
2019-03-01T15:19:24.206Z,81.32
2019-03-01T15:21:56.522Z,81.12
2019-03-01T15:24:29.312Z,80.94
2019-03-01T15:27:04.069Z,81.35
2019-03-01T15:29:34.736Z,82.00
2019-03-01T15:32:07.030Z,82.70
2019-03-01T15:34:38.716Z,82.91
2019-03-01T15:37:11.212Z,82.88
2019-03-01T15:39:44.308Z,82.67
2019-03-01T15:42:17.920Z,82.48
2019-03-01T15:44:49.850Z,82.18
2019-03-01T15:47:23.809Z,82.00
2019-03-01T15:49:55.907Z,81.95
2019-03-01T15:52:28.513Z,81.86
2019-03-01T15:55:01.484Z,81.76
2019-03-01T15:57:33.831Z,81.71
2019-03-01T16:00:06.958Z,81.98
2019-03-01T16:02:40.116Z,82.11
2019-03-01T16:05:12.401Z,82.10
2019-03-01T16:07:44.842Z,82.65
2019-03-01T16:10:17.951Z,83.14
2019-03-01T16:12:50.978Z,83.73
2019-03-01T16:15:22.909Z,84.93
2019-03-01T16:17:57.551Z,84.38
2019-03-01T16:20:29.214Z,83.82
2019-03-01T16:23:01.155Z,83.81
2019-03-01T16:25:32.908Z,84.30
2019-03-01T16:28:04.678Z,84.83
2019-03-01T16:30:36.825Z,85.05
2019-03-01T16:33:09.150Z,85.35
2019-03-01T16:35:41.090Z,85.48
2019-03-01T16:38:13.498Z,85.66
2019-03-01T16:40:45.855Z,85.84
2019-03-01T16:43:18.299Z,86.15
2019-03-01T16:45:53.275Z,86.33
2019-03-01T16:48:24.761Z,86.71
2019-03-01T16:50:57.208Z,87.13
2019-03-01T16:53:29.694Z,87.64
2019-03-01T16:56:02.613Z,88.39
2019-03-01T16:58:36.474Z,89.35
2019-03-01T17:01:09.106Z,89.97
2019-03-01T17:03:43.030Z,90.87
2019-03-01T17:06:14.973Z,91.90
2019-03-01T17:08:48.746Z,93.61
2019-03-01T17:11:21.299Z,93.95
2019-03-01T17:13:53.338Z,94.80
2019-03-01T17:16:25.379Z,96.02
2019-03-01T17:18:57.913Z,97.08
2019-03-01T17:21:29.962Z,98.19
2019-03-01T17:24:04.616Z,98.29
2019-03-01T17:26:40.119Z,99.91
2019-03-01T17:32:09.770Z,99.27
2019-03-01T17:34:42.498Z,99.71
2019-03-01T17:37:15.071Z,100.00
2019-03-01T17:39:47.851Z,100.00
2019-03-01T17:42:20.689Z,99.16
2019-03-01T17:44:53.685Z,100.00
2019-03-01T17:47:26.650Z,99.95
2019-03-01T17:49:59.836Z,99.72
2019-03-01T17:52:33.713Z,98.65
2019-03-01T17:55:06.449Z,99.37
2019-03-01T17:57:40.307Z,98.29
2019-03-01T18:00:18.189Z,98.19
2019-03-01T18:03:19.683Z,96.42
2019-03-01T18:05:54.839Z,97.09
2019-03-01T18:08:28.835Z,98.26
2019-03-01T18:11:02.170Z,97.75
2019-03-01T18:13:36.406Z,97.49
2019-03-01T18:16:09.727Z,98.42
2019-03-01T18:19:23.813Z,99.13
2019-03-01T18:21:55.572Z,100.00
2019-03-01T18:24:29.231Z,100.00
2019-03-01T18:27:05.410Z,100.00
2019-03-01T18:30:10.115Z,100.00
2019-03-01T18:32:45.258Z,100.00
2019-03-01T18:35:20.312Z,100.00
2019-03-01T18:37:55.840Z,100.00
2019-03-01T18:40:30.105Z,100.00
2019-03-01T18:43:03.455Z,100.00
2019-03-01T18:45:38.530Z,100.00
2019-03-01T18:48:43.967Z,100.00
2019-03-01T18:51:17.636Z,100.00
2019-03-01T18:53:51.229Z,100.00
2019-03-01T18:56:28.342Z,100.00
2019-03-01T18:59:01.774Z,100.00
2019-03-01T19:01:35.729Z,100.00
2019-03-01T19:04:12.962Z,100.00
2019-03-01T19:06:48.516Z,100.00
2019-03-01T19:09:21.388Z,100.00
2019-03-01T19:11:57.207Z,100.00
2019-03-01T19:14:31.742Z,100.00
2019-03-01T19:17:05.889Z,100.00
2019-03-01T19:19:39.754Z,100.00
2019-03-01T19:22:28.294Z,100.00
2019-03-01T19:25:44.903Z,100.00
2019-03-01T19:28:19.412Z,100.00
2019-03-01T19:30:53.849Z,100.00
2019-03-01T19:33:30.988Z,100.00
2019-03-01T19:36:04.462Z,100.00
2019-03-01T19:38:38.206Z,100.00
2019-03-01T19:41:12.498Z,100.00
2019-03-01T19:43:55.544Z,100.00
2019-03-01T19:46:26.517Z,100.00
2019-03-01T19:49:00.152Z,100.00
2019-03-01T19:51:37.444Z,99.72
2019-03-01T19:54:11.756Z,97.29
2019-03-01T19:56:46.011Z,96.71
2019-03-01T19:59:19.922Z,96.47
2019-03-01T20:01:56.179Z,97.70
2019-03-01T20:04:29.134Z,98.28
2019-03-01T20:07:02.543Z,99.60
2019-03-01T20:09:36.584Z,100.00
2019-03-01T20:12:11.558Z,100.00
2019-03-01T20:14:45.969Z,100.00
2019-03-01T20:17:21.765Z,100.00
2019-03-01T20:19:56.918Z,100.00
2019-03-01T20:22:32.102Z,100.00
2019-03-01T20:25:07.430Z,100.00
2019-03-01T20:27:41.314Z,100.00
2019-03-01T20:30:20.325Z,100.00
2019-03-01T20:32:53.920Z,100.00
2019-03-01T20:35:27.638Z,100.00
2019-03-01T20:38:04.432Z,100.00
2019-03-01T20:40:36.349Z,100.00
2019-03-01T20:43:12.615Z,100.00
2019-03-01T20:45:46.334Z,100.00
2019-03-01T20:48:19.875Z,100.00
2019-03-01T20:50:53.134Z,100.00
2019-03-01T20:53:26.513Z,100.00
2019-03-01T20:56:00.164Z,100.00
2019-03-01T20:58:35.897Z,100.00
2019-03-01T21:01:09.059Z,100.00
2019-03-01T21:03:42.905Z,100.00
2019-03-01T21:06:16.790Z,100.00
2019-03-01T21:08:49.774Z,100.00
2019-03-01T21:11:25.492Z,100.00
2019-03-01T21:14:10.490Z,100.00
2019-03-01T21:19:57.783Z,100.00
2019-03-01T21:22:31.015Z,100.00
2019-03-01T21:25:04.549Z,100.00
2019-03-01T21:27:37.799Z,100.00
2019-03-01T21:30:25.820Z,100.00
2019-03-01T21:32:59.194Z,100.00
2019-03-01T21:35:31.425Z,100.00
2019-03-01T21:38:04.945Z,100.00
2019-03-01T21:40:37.365Z,100.00
2019-03-01T21:43:09.279Z,100.00
2019-03-01T21:45:43.823Z,100.00
2019-03-01T21:48:16.339Z,100.00
2019-03-01T21:50:48.557Z,100.00
2019-03-01T21:53:20.546Z,100.00
2019-03-01T21:55:52.383Z,100.00
2019-03-01T21:58:24.862Z,100.00
2019-03-01T22:00:56.510Z,100.00
2019-03-01T22:03:28.863Z,100.00
2019-03-01T22:06:02.940Z,100.00
2019-03-01T22:08:35.290Z,100.00
2019-03-01T22:11:10.456Z,100.00
2019-03-01T22:13:41.011Z,100.00
2019-03-01T22:16:12.933Z,100.00
2019-03-01T22:18:45.514Z,100.00
2019-03-01T22:21:22.602Z,100.00
2019-03-01T22:23:52.351Z,100.00
2019-03-01T22:26:24.329Z,100.00
2019-03-01T22:28:59.557Z,100.00
2019-03-01T22:31:32.522Z,100.00
2019-03-01T22:34:05.010Z,100.00
2019-03-01T22:36:39.343Z,100.00
2019-03-01T22:39:13.728Z,100.00
2019-03-01T22:41:45.470Z,100.00
2019-03-01T22:44:17.438Z,100.00
2019-03-01T22:46:49.198Z,100.00
2019-03-01T22:49:21.805Z,100.00
2019-03-01T22:51:53.884Z,100.00
2019-03-01T22:54:25.949Z,100.00
2019-03-01T22:56:57.849Z,100.00
2019-03-01T22:59:29.806Z,100.00
2019-03-01T23:02:08.163Z,100.00
2019-03-01T23:04:39.284Z,100.00
2019-03-01T23:07:11.282Z,100.00
2019-03-01T23:09:46.484Z,100.00
2019-03-01T23:12:16.848Z,100.00
2019-03-01T23:14:49.781Z,100.00
2019-03-01T23:17:21.812Z,100.00
2019-03-01T23:19:53.573Z,100.00
2019-03-01T23:22:25.374Z,100.00
2019-03-01T23:24:57.181Z,100.00
2019-03-01T23:27:31.816Z,100.00
2019-03-01T23:30:02.167Z,100.00
2019-03-01T23:32:34.141Z,100.00
2019-03-01T23:35:05.741Z,100.00
2019-03-01T23:37:38.948Z,100.00
2019-03-01T23:40:10.746Z,100.00
2019-03-01T23:42:42.927Z,100.00
2019-03-01T23:45:17.521Z,100.00
2019-03-01T23:47:48.275Z,100.00
2019-03-01T23:50:19.984Z,100.00
2019-03-01T23:52:54.769Z,100.00
2019-03-01T23:55:25.218Z,100.00
2019-03-01T23:58:05.713Z,100.00
